Time;durP1;ratioP1;P1;durP2;ratioP2;P2;SDS_P1;SDS_P2;PMS_P1;PMS_P2;Temp;Humidity;BMP_temperature;BMP_pressure;BME280_temperature;BME280_humidity;BME280_pressure;Samples;Min_cycle;Max_cycle;Signal;HPM_P1;HPM_P2
2020/12/06 00:01:11;;;;;;;19.50;15.47;;;5.70;85.80;;;;;;5034432;28;20463;-72
2020/12/06 00:03:38;;;;;;;22.03;16.10;;;5.70;85.90;;;;;;5033920;28;20457;-72
2020/12/06 00:06:04;;;;;;;19.60;16.07;;;5.70;85.90;;;;;;5034504;28;20841;-72
2020/12/06 00:08:31;;;;;;;18.60;15.33;;;5.70;86.00;;;;;;5034588;28;20471;-72
2020/12/06 00:10:57;;;;;;;19.90;14.97;;;5.70;86.00;;;;;;5034409;28;20955;-72
2020/12/06 00:13:24;;;;;;;18.23;14.90;;;5.70;85.90;;;;;;5034848;28;20949;-72
2020/12/06 00:15:50;;;;;;;18.60;15.37;;;5.70;85.70;;;;;;5034530;28;20462;-72
2020/12/06 00:18:16;;;;;;;17.13;14.87;;;5.70;85.60;;;;;;5034574;28;20442;-72
2020/12/06 00:20:43;;;;;;;19.57;16.37;;;5.70;85.40;;;;;;5034471;28;20435;-72
2020/12/06 00:23:10;;;;;;;18.03;14.73;;;5.70;85.40;;;;;;5034636;28;20854;-72
2020/12/06 00:25:36;;;;;;;18.03;14.70;;;5.70;85.30;;;;;;5033866;28;20446;-72
2020/12/06 00:28:02;;;;;;;19.20;14.90;;;5.70;85.20;;;;;;5034341;28;20453;-72
2020/12/06 00:30:28;;;;;;;18.93;14.40;;;5.70;85.90;;;;;;5034117;28;20782;-72
2020/12/06 00:32:54;;;;;;;20.00;15.90;;;5.70;85.10;;;;;;5034241;28;20427;-72
2020/12/06 00:35:21;;;;;;;18.60;15.57;;;5.70;85.10;;;;;;5033954;28;20804;-72
2020/12/06 00:37:48;;;;;;;18.47;14.97;;;5.70;85.00;;;;;;5034205;28;20465;-73
2020/12/06 00:40:14;;;;;;;17.90;14.87;;;5.60;84.70;;;;;;5033767;28;20920;-72
2020/12/06 00:42:40;;;;;;;18.97;14.70;;;5.60;84.80;;;;;;5033886;28;20482;-72
2020/12/06 00:45:07;;;;;;;20.23;14.57;;;5.60;84.70;;;;;;5033932;28;20450;-72
2020/12/06 00:47:36;;;;;;;23.40;17.07;;;5.60;84.60;;;;;;5033831;28;20466;-72
2020/12/06 00:50:03;;;;;;;18.90;15.33;;;5.60;84.70;;;;;;5033929;28;20473;-72
2020/12/06 00:52:29;;;;;;;18.03;15.33;;;5.60;84.90;;;;;;5033498;28;20932;-72
2020/12/06 00:54:56;;;;;;;20.03;16.10;;;5.60;85.00;;;;;;5033660;28;20451;-72
2020/12/06 00:57:22;;;;;;;19.67;14.90;;;5.60;85.00;;;;;;5033679;28;20571;-72
2020/12/06 00:59:49;;;;;;;17.77;14.93;;;5.50;84.60;;;;;;5033668;28;20453;-72
2020/12/06 01:02:16;;;;;;;18.50;14.73;;;5.50;84.50;;;;;;5033613;28;20489;-72
2020/12/06 01:04:42;;;;;;;18.40;14.43;;;5.50;84.40;;;;;;5033575;28;20452;-72
2020/12/06 01:07:08;;;;;;;18.10;14.10;;;5.40;84.30;;;;;;5033615;28;20854;-72
2020/12/06 01:09:34;;;;;;;18.73;15.60;;;5.40;84.50;;;;;;5033380;28;20446;-72
2020/12/06 01:12:01;;;;;;;20.70;16.23;;;5.40;84.50;;;;;;5033622;28;20419;-72
2020/12/06 01:14:28;;;;;;;19.30;15.60;;;5.40;84.50;;;;;;5033242;28;20508;-72
2020/12/06 01:16:54;;;;;;;20.43;16.03;;;5.40;84.60;;;;;;5033266;28;20466;-72
2020/12/06 01:19:20;;;;;;;18.53;13.70;;;5.40;84.30;;;;;;5033500;28;20442;-72
2020/12/06 01:21:49;;;;;;;17.20;13.50;;;5.40;84.30;;;;;;5033436;28;20467;-72
2020/12/06 01:24:15;;;;;;;15.37;13.33;;;5.30;84.10;;;;;;5033427;28;20500;-72
2020/12/06 01:26:44;;;;;;;16.90;14.60;;;5.30;83.90;;;;;;5033637;28;20462;-72
2020/12/06 01:29:11;;;;;;;16.10;13.60;;;5.20;84.10;;;;;;5033320;28;20439;-72
2020/12/06 01:31:37;;;;;;;15.30;13.10;;;5.20;84.20;;;;;;5033457;28;20473;-72
2020/12/06 01:34:04;;;;;;;16.87;14.03;;;5.20;85.20;;;;;;5033624;28;20450;-72
2020/12/06 01:36:30;;;;;;;19.17;13.60;;;5.20;84.50;;;;;;5033154;28;20509;-72
2020/12/06 01:38:56;;;;;;;15.63;13.47;;;5.20;84.40;;;;;;5033358;28;20447;-72
2020/12/06 01:41:22;;;;;;;15.43;13.83;;;5.20;84.40;;;;;;5032973;28;20995;-72
2020/12/06 01:43:55;;;;;;;16.87;14.60;;;5.20;84.40;;;;;;5033251;28;20446;-72
2020/12/06 01:46:23;;;;;;;14.53;12.40;;;5.20;84.20;;;;;;5033210;28;20462;-72
2020/12/06 01:48:51;;;;;;;14.23;12.23;;;5.10;84.20;;;;;;5033198;28;20453;-72
2020/12/06 01:51:18;;;;;;;17.20;14.43;;;5.10;84.20;;;;;;5033137;28;20521;-72
2020/12/06 01:53:45;;;;;;;20.23;13.40;;;5.20;84.30;;;;;;5033220;28;20455;-72
2020/12/06 01:56:11;;;;;;;17.60;13.97;;;5.10;84.30;;;;;;5033111;28;20466;-72
2020/12/06 01:58:38;;;;;;;16.43;14.20;;;5.10;84.50;;;;;;5032873;28;20853;-72
2020/12/06 02:01:04;;;;;;;18.63;14.73;;;5.10;84.70;;;;;;5033203;28;20481;-72
2020/12/06 02:03:31;;;;;;;17.07;13.67;;;5.20;85.00;;;;;;5033203;28;20442;-72
2020/12/06 02:05:58;;;;;;;19.60;13.80;;;5.10;84.90;;;;;;5033093;28;20502;-72
2020/12/06 02:08:24;;;;;;;16.10;12.30;;;5.10;84.80;;;;;;5033067;28;20442;-72
2020/12/06 02:10:50;;;;;;;15.60;13.00;;;5.10;84.80;;;;;;5033172;28;20442;-72
2020/12/06 02:13:16;;;;;;;14.77;13.10;;;5.10;84.70;;;;;;5033027;28;20449;-72
2020/12/06 02:15:42;;;;;;;16.27;13.00;;;5.10;84.60;;;;;;5032686;28;20940;-72
2020/12/06 02:18:09;;;;;;;16.00;12.40;;;5.10;84.50;;;;;;5033145;28;20438;-72
2020/12/06 02:20:36;;;;;;;17.30;14.27;;;5.10;84.40;;;;;;5033739;28;20447;-72
2020/12/06 02:23:02;;;;;;;17.67;14.07;;;5.00;84.40;;;;;;5033106;28;20493;-72
2020/12/06 02:25:28;;;;;;;16.83;13.10;;;5.00;84.60;;;;;;5032980;28;20443;-73
2020/12/06 02:27:54;;;;;;;15.07;12.50;;;5.00;84.70;;;;;;5034672;28;20446;-72
2020/12/06 02:30:21;;;;;;;16.13;13.40;;;5.00;84.80;;;;;;5036564;28;20453;-72
2020/12/06 02:32:47;;;;;;;16.17;13.40;;;5.00;84.80;;;;;;5036460;28;20445;-72
2020/12/06 02:35:14;;;;;;;16.33;13.20;;;5.00;84.70;;;;;;5035974;28;20956;-72
2020/12/06 02:37:41;;;;;;;15.10;12.50;;;5.00;84.80;;;;;;5036429;28;20466;-72
2020/12/06 02:40:07;;;;;;;15.53;13.40;;;5.00;84.90;;;;;;5036125;28;20945;-72
2020/12/06 02:42:33;;;;;;;17.87;14.13;;;5.00;84.90;;;;;;5036306;28;20481;-72
2020/12/06 02:44:59;;;;;;;14.87;12.80;;;5.00;84.90;;;;;;5036278;28;20442;-72
2020/12/06 02:47:25;;;;;;;18.80;14.20;;;4.90;84.80;;;;;;5036296;28;20466;-72
2020/12/06 02:49:52;;;;;;;16.50;13.63;;;5.00;84.80;;;;;;5035996;28;20442;-72
2020/12/06 02:52:18;;;;;;;16.70;12.20;;;4.90;84.70;;;;;;5036446;28;20443;-72
2020/12/06 02:54:45;;;;;;;16.50;13.43;;;4.90;84.50;;;;;;5036635;28;20449;-72
2020/12/06 02:57:11;;;;;;;14.57;13.00;;;4.90;84.40;;;;;;5035814;28;20980;-72
2020/12/06 02:59:37;;;;;;;15.17;12.43;;;4.80;84.20;;;;;;5036251;28;20458;-72
2020/12/06 03:02:04;;;;;;;15.67;13.30;;;4.80;84.20;;;;;;5035981;28;20489;-72
2020/12/06 03:04:30;;;;;;;17.70;13.60;;;4.80;84.20;;;;;;5036032;28;20442;-72
2020/12/06 03:06:56;;;;;;;14.10;11.77;;;4.80;84.20;;;;;;5036061;28;20472;-72
2020/12/06 03:09:22;;;;;;;18.03;14.10;;;4.80;84.50;;;;;;5035747;28;20431;-72
2020/12/06 03:11:49;;;;;;;18.40;14.60;;;4.80;84.60;;;;;;5035970;28;20446;-72
2020/12/06 03:14:15;;;;;;;13.83;12.20;;;4.80;84.60;;;;;;5035954;28;20469;-72
2020/12/06 03:16:42;;;;;;;16.17;12.70;;;4.80;84.50;;;;;;5035653;28;20465;-72
2020/12/06 03:19:08;;;;;;;20.27;14.57;;;4.80;84.50;;;;;;5035661;28;20443;-72
2020/12/06 03:21:34;;;;;;;17.17;13.53;;;4.70;84.30;;;;;;5035146;28;20841;-72
2020/12/06 03:24:01;;;;;;;16.17;13.67;;;4.80;84.60;;;;;;5035491;28;20453;-72
2020/12/06 03:26:27;;;;;;;19.93;15.03;;;4.70;84.60;;;;;;5035566;28;20466;-72
2020/12/06 03:28:54;;;;;;;19.70;14.97;;;4.80;84.70;;;;;;5035453;28;20454;-72
2020/12/06 03:31:20;;;;;;;17.10;13.23;;;4.80;84.90;;;;;;5035139;28;20928;-72
2020/12/06 03:33:46;;;;;;;23.90;15.07;;;4.70;84.90;;;;;;5035271;28;20449;-72
2020/12/06 03:36:12;;;;;;;16.30;13.23;;;4.70;84.90;;;;;;5034997;28;20490;-72
2020/12/06 03:38:39;;;;;;;18.30;14.50;;;4.80;85.20;;;;;;5034841;28;20869;-72
2020/12/06 03:41:05;;;;;;;15.00;13.10;;;4.80;85.30;;;;;;5034802;28;20811;-72
2020/12/06 03:43:31;;;;;;;19.93;14.23;;;4.80;85.50;;;;;;5035045;28;20457;-72
2020/12/06 03:45:58;;;;;;;16.20;13.23;;;4.80;85.80;;;;;;5035091;28;20462;-72
2020/12/06 03:48:24;;;;;;;19.33;13.40;;;4.80;85.90;;;;;;5034774;28;20439;-72
2020/12/06 03:50:50;;;;;;;16.57;14.00;;;4.80;86.10;;;;;;5034784;28;20901;-72
2020/12/06 03:53:17;;;;;;;17.90;12.73;;;4.80;86.10;;;;;;5034951;28;20488;-72
2020/12/06 03:55:43;;;;;;;16.87;13.73;;;4.80;86.10;;;;;;5034834;28;20446;-72
2020/12/06 03:58:09;;;;;;;16.80;12.90;;;4.80;86.10;;;;;;5034823;28;20472;-72
2020/12/06 04:00:35;;;;;;;17.20;14.33;;;4.80;86.10;;;;;;5034793;28;20443;-72
2020/12/06 04:03:02;;;;;;;18.33;14.13;;;4.80;86.20;;;;;;5034655;28;20490;-72
2020/12/06 04:05:29;;;;;;;16.80;13.07;;;4.80;86.30;;;;;;5034691;28;20446;-72
2020/12/06 04:07:55;;;;;;;16.23;13.13;;;4.80;86.30;;;;;;5034579;28;20442;-72
2020/12/06 04:10:21;;;;;;;17.63;13.17;;;4.80;86.20;;;;;;5034574;28;20451;-72
2020/12/06 04:12:47;;;;;;;15.00;12.33;;;4.80;86.30;;;;;;5034537;28;20821;-72
2020/12/06 04:15:13;;;;;;;18.30;14.47;;;4.80;86.10;;;;;;5034585;28;20451;-72
2020/12/06 04:17:40;;;;;;;15.10;12.50;;;4.80;86.10;;;;;;5034382;28;20462;-72
2020/12/06 04:20:07;;;;;;;17.60;13.20;;;4.70;86.10;;;;;;5034136;28;20446;-72
2020/12/06 04:22:34;;;;;;;17.77;14.00;;;4.70;86.20;;;;;;5034351;28;20485;-72
2020/12/06 04:25:00;;;;;;;16.03;12.77;;;4.80;86.40;;;;;;5034368;28;20446;-72
2020/12/06 04:27:26;;;;;;;15.73;13.30;;;4.80;86.20;;;;;;5034196;28;20865;-72
2020/12/06 04:29:52;;;;;;;21.90;12.20;;;4.70;86.00;;;;;;5034480;28;20445;-72
2020/12/06 04:32:18;;;;;;;17.40;12.80;;;4.70;86.00;;;;;;5034201;28;20852;-72
2020/12/06 04:34:45;;;;;;;15.80;12.57;;;4.70;86.00;;;;;;5034126;28;20454;-72
2020/12/06 04:37:13;;;;;;;14.50;12.23;;;4.70;86.00;;;;;;5033658;28;20865;-72
2020/12/06 04:39:39;;;;;;;16.00;13.03;;;4.70;86.10;;;;;;5034082;28;20453;-72
2020/12/06 04:42:05;;;;;;;16.63;13.53;;;4.60;85.90;;;;;;5033892;28;20505;-72
2020/12/06 04:44:31;;;;;;;14.33;11.90;;;4.60;86.00;;;;;;5034240;28;20475;-72
2020/12/06 04:47:00;;;;;;;16.37;13.27;;;4.60;86.00;;;;;;5033526;28;20826;-72
2020/12/06 04:49:42;;;;;;;13.40;11.40;;;4.60;86.00;;;;;;5033671;28;20450;-72
2020/12/06 04:52:14;;;;;;;17.83;12.20;;;4.60;86.00;;;;;;5033985;28;20510;-72
2020/12/06 04:54:41;;;;;;;13.73;12.20;;;4.50;85.80;;;;;;5033956;28;20465;-72
2020/12/06 04:57:10;;;;;;;15.10;11.63;;;4.50;85.70;;;;;;5033767;28;20467;-72
2020/12/06 04:59:42;;;;;;;15.60;12.17;;;4.50;85.70;;;;;;5033525;28;20446;-72
2020/12/06 05:02:10;;;;;;;13.43;11.27;;;4.40;85.60;;;;;;5033711;28;20462;-72
2020/12/06 05:04:41;;;;;;;16.10;12.70;;;4.40;85.70;;;;;;5033740;28;20415;-73
2020/12/06 05:07:07;;;;;;;14.20;11.30;;;4.40;85.80;;;;;;5033603;28;20461;-73
2020/12/06 05:09:36;;;;;;;14.37;12.23;;;4.40;85.80;;;;;;5033653;28;20449;-73
2020/12/06 05:12:04;;;;;;;16.70;12.43;;;4.40;85.90;;;;;;5033636;28;20446;-72
2020/12/06 05:14:30;;;;;;;16.33;12.27;;;4.40;85.90;;;;;;5033814;28;20446;-72
2020/12/06 05:16:57;;;;;;;14.90;12.30;;;4.40;86.00;;;;;;5033509;28;20462;-72
2020/12/06 05:19:25;;;;;;;16.23;12.77;;;4.40;86.10;;;;;;5033201;28;21006;-72
2020/12/06 05:21:52;;;;;;;14.80;12.50;;;4.50;86.30;;;;;;5033402;28;20478;-72
2020/12/06 05:24:18;;;;;;;14.10;11.73;;;4.50;86.50;;;;;;5033447;28;20450;-72
2020/12/06 05:26:45;;;;;;;16.73;12.70;;;4.50;86.50;;;;;;5033326;28;20471;-73
2020/12/06 05:29:13;;;;;;;14.90;12.70;;;4.40;86.40;;;;;;5033350;28;20442;-72
2020/12/06 05:31:39;;;;;;;14.10;12.20;;;4.40;86.40;;;;;;5033364;28;20547;-72
2020/12/06 05:34:06;;;;;;;16.70;12.60;;;4.40;86.30;;;;;;5033365;28;20442;-72
2020/12/06 05:36:32;;;;;;;18.30;12.90;;;4.30;86.20;;;;;;5032870;28;20478;-73
2020/12/06 05:38:58;;;;;;;16.90;13.10;;;4.20;86.10;;;;;;5033296;28;20438;-72
2020/12/06 05:41:25;;;;;;;14.30;12.40;;;4.20;86.70;;;;;;5033197;28;20845;-72
2020/12/06 05:43:52;;;;;;;15.97;13.13;;;4.20;87.10;;;;;;5032960;28;20978;-72
2020/12/06 05:46:18;;;;;;;15.77;12.67;;;4.20;87.50;;;;;;5032959;28;20466;-72
2020/12/06 05:48:46;;;;;;;17.17;15.30;;;4.20;87.70;;;;;;5033276;28;20445;-72
2020/12/06 05:51:14;;;;;;;16.57;13.10;;;4.30;87.90;;;;;;5033238;28;20474;-72
2020/12/06 05:53:40;;;;;;;16.53;12.40;;;4.30;88.20;;;;;;5033207;28;20450;-72
2020/12/06 05:56:12;;;;;;;15.33;12.70;;;4.30;88.20;;;;;;5032811;28;20806;-72
2020/12/06 05:58:41;;;;;;;16.37;12.40;;;4.30;88.30;;;;;;5033340;28;20423;-72
2020/12/06 06:01:09;;;;;;;17.23;13.30;;;4.40;88.40;;;;;;5032913;28;20998;-72
2020/12/06 06:03:36;;;;;;;16.07;14.20;;;4.40;88.60;;;;;;5035925;28;20900;-72
2020/12/06 06:06:04;;;;;;;16.20;12.67;;;4.40;88.60;;;;;;5036896;28;20469;-72
2020/12/06 06:08:32;;;;;;;16.87;13.77;;;4.40;88.70;;;;;;5037120;28;20516;-72
2020/12/06 06:11:21;;;;;;;17.40;13.37;;;4.40;88.70;;;;;;5036832;28;20437;-72
2020/12/06 06:13:52;;;;;;;16.07;13.97;;;4.40;88.70;;;;;;5036893;28;20431;-72
2020/12/06 06:16:21;;;;;;;23.30;14.03;;;4.50;88.80;;;;;;5036762;28;20520;-72
2020/12/06 06:18:48;;;;;;;15.20;12.70;;;4.40;88.70;;;;;;5036738;28;20446;-72
2020/12/06 06:21:17;;;;;;;15.80;13.27;;;4.40;88.80;;;;;;5036220;28;20976;-72
2020/12/06 06:23:46;;;;;;;15.47;12.93;;;4.40;88.90;;;;;;5036590;28;20449;-72
2020/12/06 06:26:14;;;;;;;15.23;12.70;;;4.40;89.00;;;;;;5036480;28;20873;-72
2020/12/06 06:28:40;;;;;;;14.73;12.43;;;4.50;89.30;;;;;;5036521;28;20457;-72
2020/12/06 06:31:10;;;;;;;15.27;12.97;;;4.50;89.40;;;;;;5036434;28;20443;-73
2020/12/06 06:33:38;;;;;;;14.97;12.90;;;4.50;90.10;;;;;;5036438;28;20422;-73
2020/12/06 06:36:06;;;;;;;15.13;12.60;;;4.50;89.60;;;;;;5036032;28;20477;-73
2020/12/06 06:38:38;;;;;;;14.23;11.53;;;4.50;89.60;;;;;;5036368;28;20443;-73
2020/12/06 06:41:06;;;;;;;15.50;11.63;;;4.50;89.70;;;;;;5036310;28;20432;-73
2020/12/06 06:43:33;;;;;;;15.70;12.93;;;4.50;89.80;;;;;;5036158;28;20478;-73
2020/12/06 06:46:10;;;;;;;14.90;12.80;;;4.50;89.90;;;;;;5036112;28;20462;-73
2020/12/06 06:48:37;;;;;;;15.23;12.53;;;4.60;90.00;;;;;;5036199;28;20460;-73
2020/12/06 06:51:04;;;;;;;15.27;13.43;;;4.60;90.00;;;;;;5035785;28;20979;-73
2020/12/06 06:53:31;;;;;;;14.10;12.17;;;4.60;89.70;;;;;;5036029;28;20465;-73
2020/12/06 06:55:59;;;;;;;16.50;13.17;;;4.50;89.40;;;;;;5035964;28;20473;-73
2020/12/06 06:58:30;;;;;;;16.00;13.07;;;4.50;89.50;;;;;;5036001;28;20465;-73
2020/12/06 07:01:19;;;;;;;16.80;14.10;;;4.50;89.70;;;;;;5035985;28;20794;-73
2020/12/06 07:03:47;;;;;;;18.07;13.00;;;4.50;89.80;;;;;;5035566;28;20897;-72
2020/12/06 07:06:44;;;;;;;18.80;13.60;;;4.50;89.80;;;;;;5035793;28;20501;-73
2020/12/06 07:09:10;;;;;;;16.73;12.57;;;4.50;89.50;;;;;;5035766;28;20872;-73
2020/12/06 07:11:38;;;;;;;14.03;12.20;;;4.50;89.60;;;;;;5035722;28;20450;-73
2020/12/06 07:14:04;;;;;;;13.97;12.30;;;4.50;89.80;;;;;;5035195;28;20445;-73
2020/12/06 07:16:30;;;;;;;17.47;12.33;;;4.50;89.80;;;;;;5035562;28;20454;-73
2020/12/06 07:18:57;;;;;;;16.77;13.50;;;4.40;89.80;;;;;;5035342;28;20446;-72
2020/12/06 07:21:30;;;;;;;20.17;14.57;;;4.50;90.00;;;;;;5035435;28;20449;-72
2020/12/06 07:23:57;;;;;;;19.40;13.47;;;4.40;90.10;;;;;;5035804;28;20426;-72
2020/12/06 07:26:23;;;;;;;18.07;14.10;;;4.40;90.10;;;;;;5035511;28;20868;-73
2020/12/06 07:28:50;;;;;;;19.67;13.70;;;4.40;90.10;;;;;;5035472;28;20446;-72
2020/12/06 07:31:18;;;;;;;17.70;14.57;;;4.50;90.20;;;;;;5035349;28;20489;-73
2020/12/06 07:33:44;;;;;;;19.33;14.57;;;4.40;90.30;;;;;;5035301;28;20478;-73
2020/12/06 07:36:11;;;;;;;16.13;13.73;;;4.50;90.40;;;;;;5034876;28;20478;-73
2020/12/06 07:38:38;;;;;;;16.70;13.33;;;4.50;90.40;;;;;;5035171;28;20438;-73
2020/12/06 07:41:04;;;;;;;17.30;14.10;;;4.50;90.50;;;;;;5035148;28;20852;-73
2020/12/06 07:43:31;;;;;;;17.30;14.40;;;4.50;90.50;;;;;;5035016;28;20489;-73
2020/12/06 07:45:57;;;;;;;15.97;13.20;;;4.60;90.60;;;;;;5034957;28;20968;-73
2020/12/06 07:48:23;;;;;;;16.70;13.57;;;4.60;90.60;;;;;;5035445;28;20446;-73
2020/12/06 07:50:50;;;;;;;16.20;12.70;;;4.60;90.50;;;;;;5034886;28;20419;-73
2020/12/06 07:53:17;;;;;;;17.30;14.23;;;4.60;90.50;;;;;;5035191;28;20442;-72
2020/12/06 07:55:43;;;;;;;17.53;13.90;;;4.70;90.50;;;;;;5034841;28;20446;-73
2020/12/06 07:58:14;;;;;;;18.77;13.70;;;4.70;90.50;;;;;;5034831;28;20442;-72
2020/12/06 08:00:41;;;;;;;17.63;12.73;;;4.70;90.50;;;;;;5034808;28;20458;-72
2020/12/06 08:03:07;;;;;;;16.40;14.33;;;4.70;90.50;;;;;;5034350;28;20478;-72
2020/12/06 08:05:35;;;;;;;18.53;14.30;;;4.80;90.60;;;;;;5034675;28;20452;-73
2020/12/06 08:08:05;;;;;;;20.33;14.00;;;4.80;90.70;;;;;;5034619;28;20470;-73
2020/12/06 08:10:34;;;;;;;15.27;12.43;;;4.80;90.70;;;;;;5034844;28;20820;-73
2020/12/06 08:13:01;;;;;;;16.10;13.10;;;4.80;90.70;;;;;;5034571;28;20447;-73
2020/12/06 08:15:28;;;;;;;18.10;13.90;;;4.90;90.80;;;;;;5034463;28;20442;-73
2020/12/06 08:17:55;;;;;;;17.57;13.77;;;4.90;90.80;;;;;;5034844;28;20520;-73
2020/12/06 08:20:23;;;;;;;17.30;13.83;;;4.90;90.70;;;;;;5034085;28;20932;-73
2020/12/06 08:22:53;;;;;;;114.60;56.30;;;4.90;90.70;;;;;;5034017;28;20493;-73
2020/12/06 08:25:22;;;;;;;141.20;72.30;;;4.90;90.70;;;;;;5033583;28;20455;-72
2020/12/06 08:27:51;;;;;;;138.80;73.10;;;4.90;90.60;;;;;;5034333;28;20469;-72
2020/12/06 08:30:18;;;;;;;42.13;27.60;;;4.90;90.50;;;;;;5034570;28;20427;-72
2020/12/06 08:32:52;;;;;;;21.17;15.03;;;4.90;90.40;;;;;;5034933;28;20442;-72
2020/12/06 08:35:18;;;;;;;17.97;14.53;;;4.90;90.40;;;;;;5034507;28;20474;-72
2020/12/06 08:37:45;;;;;;;18.43;13.70;;;4.90;90.40;;;;;;5034374;28;20839;-72
2020/12/06 08:40:11;;;;;;;15.80;12.83;;;4.80;90.20;;;;;;5034451;28;20439;-72
2020/12/06 08:42:38;;;;;;;13.90;12.03;;;4.80;90.30;;;;;;5034248;28;20513;-72
2020/12/06 08:45:05;;;;;;;15.93;12.07;;;4.80;90.30;;;;;;5034869;28;20449;-72
2020/12/06 08:47:42;;;;;;;16.33;13.80;;;4.80;90.30;;;;;;5034828;28;20542;-73
2020/12/06 08:50:12;;;;;;;19.03;14.23;;;4.80;90.50;;;;;;5036515;28;20802;-72
2020/12/06 08:52:38;;;;;;;15.17;12.93;;;4.80;90.50;;;;;;5035205;28;20443;-72
2020/12/06 08:55:23;;;;;;;17.70;13.90;;;4.80;90.50;;;;;;5034942;28;20439;-72
2020/12/06 08:57:50;;;;;;;18.03;13.00;;;4.90;90.70;;;;;;5034316;28;20473;-73
2020/12/06 09:00:17;;;;;;;16.60;13.57;;;4.90;90.70;;;;;;5034058;28;20795;-72
2020/12/06 09:02:43;;;;;;;18.87;14.43;;;4.90;90.70;;;;;;5033335;28;20478;-72
2020/12/06 09:05:09;;;;;;;17.77;14.80;;;4.90;90.70;;;;;;5033743;28;20811;-72
2020/12/06 09:07:36;;;;;;;18.90;14.57;;;5.00;90.70;;;;;;5033645;28;20471;-73
2020/12/06 09:10:03;;;;;;;17.23;15.13;;;5.00;90.80;;;;;;5033473;28;20435;-73
2020/12/06 09:12:33;;;;;;;18.30;14.20;;;5.10;90.80;;;;;;5033517;28;20442;-73
2020/12/06 09:14:59;;;;;;;17.57;14.53;;;5.20;90.80;;;;;;5035291;28;20442;-73
2020/12/06 09:17:27;;;;;;;18.73;14.57;;;5.30;90.80;;;;;;5036078;28;20489;-73
2020/12/06 09:19:53;;;;;;;17.07;13.83;;;5.40;90.90;;;;;;5036712;28;20438;-73
2020/12/06 09:22:20;;;;;;;17.80;14.23;;;5.50;90.80;;;;;;5037920;28;20471;-73
2020/12/06 09:24:46;;;;;;;16.87;14.23;;;5.60;90.80;;;;;;5036800;28;20427;-73
2020/12/06 09:27:12;;;;;;;17.80;13.30;;;5.70;90.70;;;;;;5034614;28;20867;-73
2020/12/06 09:29:38;;;;;;;15.23;13.67;;;5.80;90.50;;;;;;5033706;28;20434;-73
2020/12/06 09:32:05;;;;;;;17.27;14.63;;;5.90;90.20;;;;;;5033083;28;20926;-72
2020/12/06 09:34:32;;;;;;;18.77;14.00;;;6.00;90.20;;;;;;5033405;28;20426;-72
2020/12/06 09:36:58;;;;;;;17.07;13.80;;;6.00;90.10;;;;;;5035354;28;20477;-72
2020/12/06 09:39:24;;;;;;;20.17;14.33;;;6.10;90.00;;;;;;5037509;28;20792;-72
2020/12/06 09:41:50;;;;;;;18.30;14.20;;;6.20;89.20;;;;;;5037328;28;20427;-72
2020/12/06 09:44:17;;;;;;;18.07;14.87;;;6.20;89.00;;;;;;5037412;28;20537;-72
2020/12/06 09:46:43;;;;;;;16.00;14.30;;;6.30;89.40;;;;;;5037283;28;20533;-72
2020/12/06 09:49:09;;;;;;;20.73;15.43;;;6.30;89.30;;;;;;5037330;28;20426;-74
2020/12/06 09:51:36;;;;;;;16.63;14.43;;;6.40;88.90;;;;;;5037376;28;20431;-73
2020/12/06 09:54:03;;;;;;;17.50;13.90;;;6.50;88.60;;;;;;5037229;28;20517;-74
2020/12/06 09:56:29;;;;;;;17.97;14.77;;;6.50;88.20;;;;;;5037200;28;20454;-74
2020/12/06 09:58:56;;;;;;;16.93;14.77;;;6.50;88.00;;;;;;5037188;28;20426;-74
2020/12/06 10:01:24;;;;;;;19.83;16.00;;;6.60;87.90;;;;;;5037120;28;20422;-74
2020/12/06 10:03:50;;;;;;;20.13;15.70;;;6.60;87.90;;;;;;5036991;28;20509;-73
2020/12/06 10:06:22;;;;;;;19.80;16.00;;;6.70;88.00;;;;;;5036879;28;20514;-74
2020/12/06 10:08:49;;;;;;;18.47;15.10;;;6.80;88.00;;;;;;5036958;28;20422;-74
2020/12/06 10:11:15;;;;;;;18.20;14.70;;;6.90;87.90;;;;;;5036893;28;20442;-74
2020/12/06 10:13:41;;;;;;;20.63;16.60;;;7.00;87.60;;;;;;5036912;28;20484;-73
2020/12/06 10:16:08;;;;;;;23.90;18.23;;;7.10;87.50;;;;;;5036730;28;20459;-73
2020/12/06 10:18:34;;;;;;;17.93;15.83;;;7.20;87.30;;;;;;5036838;28;20430;-73
2020/12/06 10:21:00;;;;;;;18.47;15.90;;;7.30;87.00;;;;;;5036672;28;20431;-74
2020/12/06 10:23:26;;;;;;;22.43;17.13;;;7.50;86.80;;;;;;5036191;28;20976;-74
2020/12/06 10:25:53;;;;;;;21.73;15.57;;;7.60;86.40;;;;;;5036661;28;20475;-74
2020/12/06 10:28:20;;;;;;;27.70;21.30;;;7.60;85.90;;;;;;5036534;28;20430;-73
2020/12/06 10:30:46;;;;;;;32.60;27.30;;;7.70;85.60;;;;;;5036508;28;20427;-74
2020/12/06 10:33:12;;;;;;;30.70;24.63;;;7.70;85.40;;;;;;5036480;28;20442;-73
2020/12/06 10:35:40;;;;;;;23.13;19.43;;;7.80;85.10;;;;;;5036324;28;20836;-74
2020/12/06 10:38:06;;;;;;;19.87;16.50;;;7.80;85.00;;;;;;5036073;28;20796;-74
2020/12/06 10:40:32;;;;;;;23.20;19.37;;;7.90;85.00;;;;;;5036411;28;20807;-74
2020/12/06 10:42:59;;;;;;;19.00;17.07;;;7.90;84.70;;;;;;5036240;28;20471;-74
2020/12/06 10:45:25;;;;;;;22.47;18.80;;;8.00;84.70;;;;;;5036453;28;20898;-73
2020/12/06 10:47:52;;;;;;;19.60;16.80;;;8.00;84.50;;;;;;5035456;28;20468;-73
2020/12/06 10:50:18;;;;;;;20.73;18.33;;;8.10;84.20;;;;;;5035997;28;20796;-74
2020/12/06 10:52:44;;;;;;;22.23;18.60;;;8.10;84.10;;;;;;5036197;28;20426;-74
2020/12/06 10:55:10;;;;;;;23.23;18.13;;;8.10;84.10;;;;;;5036120;28;20450;-73
2020/12/06 10:57:37;;;;;;;21.80;17.93;;;8.10;84.10;;;;;;5035639;28;20992;-74
2020/12/06 11:00:05;;;;;;;24.30;18.93;;;8.10;84.10;;;;;;5036005;28;20426;-74
2020/12/06 11:02:31;;;;;;;23.03;17.73;;;8.10;84.20;;;;;;5036103;28;20513;-73
2020/12/06 11:04:58;;;;;;;25.20;20.60;;;8.00;84.10;;;;;;5035628;28;20451;-74
2020/12/06 11:07:24;;;;;;;22.60;17.60;;;8.00;84.20;;;;;;5035876;28;20465;-73
2020/12/06 11:09:50;;;;;;;18.70;15.10;;;8.00;84.50;;;;;;5035837;28;20446;-73
2020/12/06 11:12:16;;;;;;;23.47;18.50;;;7.90;84.50;;;;;;5035735;28;20496;-73
2020/12/06 11:14:43;;;;;;;25.83;17.67;;;7.90;84.90;;;;;;5035811;28;20427;-74
2020/12/06 11:17:10;;;;;;;22.40;16.90;;;7.80;85.30;;;;;;5035319;28;20470;-74
2020/12/06 11:19:36;;;;;;;23.90;19.13;;;7.70;84.90;;;;;;5035746;28;20446;-74
2020/12/06 11:22:02;;;;;;;22.30;18.10;;;7.60;85.30;;;;;;5035607;28;20522;-74
2020/12/06 11:24:28;;;;;;;22.67;18.30;;;7.60;86.60;;;;;;5035820;28;20422;-74
2020/12/06 11:26:56;;;;;;;22.83;18.77;;;7.50;86.40;;;;;;5035074;28;20885;-73
2020/12/06 11:29:23;;;;;;;25.30;18.40;;;7.50;86.70;;;;;;5035569;28;20490;-73
2020/12/06 11:31:49;;;;;;;26.13;19.27;;;7.50;86.70;;;;;;5035241;28;20426;-73
2020/12/06 11:34:16;;;;;;;23.93;18.60;;;7.40;86.80;;;;;;5035163;28;20915;-73
2020/12/06 11:36:42;;;;;;;23.87;18.40;;;7.40;87.00;;;;;;5034771;28;20987;-74
2020/12/06 11:39:08;;;;;;;23.40;18.90;;;7.40;87.30;;;;;;5035315;28;20427;-74
2020/12/06 11:41:34;;;;;;;24.20;18.30;;;7.40;87.70;;;;;;5035480;28;20439;-74
2020/12/06 11:44:01;;;;;;;21.33;18.20;;;7.40;88.00;;;;;;5035053;28;20478;-74
2020/12/06 11:46:27;;;;;;;24.63;18.83;;;7.30;88.90;;;;;;5035268;28;20470;-74
2020/12/06 11:48:53;;;;;;;28.40;20.27;;;7.30;88.40;;;;;;5035459;28;20423;-74
2020/12/06 11:51:20;;;;;;;24.93;21.20;;;7.30;89.00;;;;;;5035088;28;20450;-74
2020/12/06 11:53:46;;;;;;;28.13;20.37;;;7.30;89.40;;;;;;5035290;28;20410;-74
2020/12/06 11:56:13;;;;;;;25.67;20.70;;;7.30;89.70;;;;;;5034984;28;20458;-74
2020/12/06 11:58:40;;;;;;;26.27;18.63;;;7.30;90.00;;;;;;5035379;28;20419;-74
2020/12/06 12:01:06;;;;;;;26.03;19.17;;;7.30;90.10;;;;;;5034933;28;20470;-74
2020/12/06 12:03:32;;;;;;;23.80;19.47;;;7.30;90.20;;;;;;5034751;28;20481;-74
2020/12/06 12:05:58;;;;;;;21.97;18.47;;;7.30;90.30;;;;;;5034699;28;20862;-74
2020/12/06 12:08:25;;;;;;;25.07;18.10;;;7.30;90.40;;;;;;5034418;28;20819;-74
2020/12/06 12:10:52;;;;;;;24.17;19.00;;;7.30;90.50;;;;;;5034597;28;20428;-74
2020/12/06 12:13:18;;;;;;;26.67;19.73;;;7.40;90.70;;;;;;5034642;28;20443;-74
2020/12/06 12:15:44;;;;;;;24.50;18.10;;;7.40;90.70;;;;;;5034463;28;20445;-75
2020/12/06 12:18:10;;;;;;;26.70;21.03;;;7.40;90.80;;;;;;5034531;28;20434;-74
2020/12/06 12:20:37;;;;;;;26.40;19.67;;;7.40;90.80;;;;;;5034636;28;20450;-74
2020/12/06 12:23:03;;;;;;;24.03;19.30;;;7.40;90.80;;;;;;5034780;28;20474;-74
2020/12/06 12:25:30;;;;;;;25.40;18.53;;;7.40;90.90;;;;;;5034553;28;20431;-74
2020/12/06 12:27:56;;;;;;;24.90;19.37;;;7.40;90.90;;;;;;5034386;28;20474;-74
2020/12/06 12:30:22;;;;;;;28.03;19.90;;;7.40;91.00;;;;;;5034656;28;20928;-74
2020/12/06 12:32:48;;;;;;;26.17;21.07;;;7.40;91.10;;;;;;5035348;28;20427;-74
2020/12/06 12:35:15;;;;;;;25.23;19.83;;;7.40;91.30;;;;;;5033980;28;21090;-74